createdAt,value
2019-01-05T00:00:50.536Z,8.00
2019-01-05T00:03:54.885Z,9.85
2019-01-05T00:06:58.665Z,8.05
2019-01-05T00:10:03.520Z,8.88
2019-01-05T00:13:08.082Z,7.37
2019-01-05T00:16:12.415Z,9.65
2019-01-05T00:19:20.896Z,9.65
2019-01-05T00:22:23.854Z,8.15
2019-01-05T00:25:28.690Z,8.78
2019-01-05T00:28:30.976Z,8.35
2019-01-05T00:31:34.249Z,8.60
2019-01-05T00:34:39.106Z,9.33
2019-01-05T00:37:44.967Z,8.73
2019-01-05T00:40:47.738Z,7.97
2019-01-05T00:43:46.762Z,10.05
2019-01-05T00:46:49.453Z,9.08
2019-01-05T00:49:53.262Z,9.15
2019-01-05T00:52:56.057Z,10.23
2019-01-05T00:56:04.730Z,9.33
2019-01-05T00:59:07.756Z,9.50
2019-01-05T01:02:10.293Z,8.70
2019-01-05T01:05:13.064Z,7.92
2019-01-05T01:08:15.849Z,7.45
2019-01-05T01:11:22.471Z,7.92
2019-01-05T01:14:25.256Z,8.03
2019-01-05T01:17:28.039Z,7.55
2019-01-05T01:20:32.115Z,8.38
2019-01-05T01:23:34.631Z,7.80
2019-01-05T01:26:37.416Z,7.45
2019-01-05T01:29:40.969Z,8.18
2019-01-05T01:32:45.544Z,7.60
2019-01-05T01:35:48.585Z,7.87
2019-01-05T01:39:03.399Z,8.15
2019-01-05T01:42:09.257Z,7.65
2019-01-05T01:45:11.785Z,8.25
2019-01-05T01:48:14.333Z,6.45
2019-01-05T01:51:17.095Z,7.80
2019-01-05T01:54:23.211Z,7.67
2019-01-05T01:57:25.737Z,7.45
2019-01-05T02:00:52.071Z,7.42
2019-01-05T02:03:54.856Z,7.85
2019-01-05T02:06:58.921Z,6.83
2019-01-05T02:10:01.707Z,7.55
2019-01-05T02:13:04.497Z,7.08
2019-01-05T02:16:07.274Z,6.75
2019-01-05T02:19:17.743Z,6.55
2019-01-05T02:22:37.676Z,7.10
2019-01-05T02:25:44.296Z,6.55
2019-01-05T02:29:04.235Z,6.90
2019-01-05T02:32:21.354Z,5.40
2019-01-05T02:35:38.216Z,7.17
2019-01-05T02:38:50.984Z,7.65
2019-01-05T02:42:08.525Z,6.35
2019-01-05T02:45:26.504Z,7.15
2019-01-05T02:48:39.533Z,6.12
2019-01-05T02:52:04.077Z,6.78
2019-01-05T02:55:18.896Z,6.47
2019-01-05T02:58:39.595Z,7.25
2019-01-05T03:01:52.620Z,6.03
2019-01-05T03:05:04.619Z,5.37
2019-01-05T03:08:18.932Z,6.22
2019-01-05T03:11:36.042Z,5.75
2019-01-05T03:14:59.308Z,5.92
2019-01-05T03:18:11.115Z,6.50
2019-01-05T03:21:34.059Z,6.80
2019-01-05T03:24:57.838Z,5.40
2019-01-05T03:28:23.916Z,6.80
2019-01-05T03:31:29.671Z,5.00
2019-01-05T03:34:46.379Z,5.70
2019-01-05T03:38:15.532Z,5.58
2019-01-05T03:41:29.579Z,5.53
2019-01-05T03:48:33.517Z,5.80
2019-01-05T03:52:03.178Z,6.05
2019-01-05T03:55:29.767Z,7.47
2019-01-05T03:58:42.538Z,9.33
2019-01-05T04:01:56.072Z,6.33
2019-01-05T04:05:12.936Z,5.42
2019-01-05T04:08:26.986Z,5.25
2019-01-05T04:11:41.033Z,5.10
2019-01-05T04:15:01.005Z,6.97
2019-01-05T04:18:24.234Z,6.22
2019-01-05T04:21:55.952Z,5.65
2019-01-05T04:25:12.810Z,8.40
2019-01-05T04:28:25.067Z,6.22
2019-01-05T04:31:47.820Z,7.12
2019-01-05T04:35:05.192Z,7.75
2019-01-05T04:38:17.959Z,6.17
2019-01-05T04:41:30.729Z,6.45
2019-01-05T04:44:53.482Z,5.42
2019-01-05T04:48:16.233Z,7.12
2019-01-05T04:51:30.284Z,7.87
2019-01-05T04:54:44.082Z,6.10
2019-01-05T04:57:55.572Z,8.33
2019-01-05T05:01:09.867Z,7.22
2019-01-05T05:04:22.888Z,7.72
2019-01-05T05:07:40.782Z,6.72
2019-01-05T05:11:06.861Z,6.75
2019-01-05T05:14:23.469Z,8.55
2019-01-05T05:17:36.496Z,6.90
2019-01-05T05:20:49.515Z,8.70
2019-01-05T05:24:07.146Z,7.37
2019-01-05T05:27:24.265Z,7.10
2019-01-05T05:30:40.874Z,6.58
2019-01-05T05:33:53.901Z,6.42
2019-01-05T05:37:16.916Z,6.72
2019-01-05T05:40:34.028Z,6.87
2019-01-05T05:44:00.872Z,6.90
2019-01-05T05:47:20.816Z,7.15
2019-01-05T05:50:34.089Z,7.47
2019-01-05T05:53:46.860Z,6.75
2019-01-05T05:57:03.993Z,6.55
2019-01-05T06:00:20.586Z,8.33
2019-01-05T06:03:43.593Z,7.30
2019-01-05T06:07:00.199Z,8.33
2019-01-05T06:10:16.810Z,7.12
2019-01-05T06:13:34.698Z,7.03
2019-01-05T06:16:57.968Z,7.50
2019-01-05T06:20:14.571Z,7.55
2019-01-05T06:23:28.364Z,8.53
2019-01-05T06:26:41.895Z,6.62
2019-01-05T06:29:54.411Z,7.17
2019-01-05T06:33:07.175Z,7.28
2019-01-05T06:36:19.688Z,6.62
2019-01-05T06:39:37.318Z,7.03
2019-01-05T06:42:50.122Z,7.15
2019-01-05T06:46:05.677Z,6.90
2019-01-05T06:49:18.441Z,7.72
2019-01-05T06:52:44.268Z,6.10
2019-01-05T06:55:57.031Z,6.30
2019-01-05T06:59:20.042Z,6.05
2019-01-05T07:02:48.935Z,5.75
2019-01-05T07:06:08.872Z,5.92
2019-01-05T07:09:21.901Z,5.62
2019-01-05T07:12:34.920Z,5.87
2019-01-05T07:16:04.085Z,5.22
2019-01-05T07:19:21.960Z,5.47
2019-01-05T07:22:34.986Z,5.65
2019-01-05T07:25:58.248Z,5.35
2019-01-05T07:29:10.761Z,5.42
2019-01-05T07:32:24.551Z,5.05
2019-01-05T07:35:50.378Z,5.90
2019-01-05T07:39:04.427Z,5.37
2019-01-05T07:42:24.358Z,4.75
2019-01-05T07:45:33.567Z,5.00
2019-01-05T07:48:46.578Z,5.47
2019-01-05T07:51:59.595Z,5.45
2019-01-05T07:55:12.104Z,4.78
2019-01-05T07:58:29.226Z,5.45
2019-01-05T08:01:41.735Z,4.87
2019-01-05T08:04:54.760Z,6.22
2019-01-05T08:08:08.043Z,7.05
2019-01-05T08:11:30.791Z,5.12
2019-01-05T08:14:46.121Z,5.45
2019-01-05T08:17:58.890Z,5.12
2019-01-05T08:21:11.659Z,4.70
2019-01-05T08:24:31.596Z,5.47
2019-01-05T08:27:44.359Z,5.05
2019-01-05T08:30:57.383Z,5.55
2019-01-05T08:34:23.466Z,5.08
2019-01-05T08:37:36.231Z,4.85
2019-01-05T08:41:09.483Z,4.53
2019-01-05T08:44:23.532Z,4.50
2019-01-05T08:47:36.296Z,6.05
2019-01-05T08:50:53.418Z,4.33
2019-01-05T08:54:06.696Z,4.65
2019-01-05T08:57:30.498Z,6.35
2019-01-05T09:00:45.032Z,5.97
2019-01-05T09:03:54.479Z,6.28
2019-01-05T09:07:17.736Z,4.92
2019-01-05T09:14:05.865Z,7.87
2019-01-05T09:17:20.103Z,4.65
2019-01-05T09:20:32.872Z,4.67
2019-01-05T09:23:58.951Z,5.15
2019-01-05T09:27:13.269Z,5.35
2019-01-05T09:30:43.438Z,5.75
2019-01-05T09:33:56.459Z,4.87
2019-01-05T09:37:14.350Z,5.15
2019-01-05T09:40:28.649Z,6.15
2019-01-05T09:43:41.669Z,4.87
2019-01-05T09:46:52.905Z,7.47
2019-01-05T09:50:06.183Z,5.10
2019-01-05T09:53:19.479Z,6.20
2019-01-05T09:56:39.402Z,5.62
2019-01-05T09:59:52.426Z,7.20
2019-01-05T10:03:04.683Z,7.20
2019-01-05T10:06:18.734Z,8.30
2019-01-05T10:09:42.271Z,6.35
2019-01-05T10:13:09.355Z,4.95
2019-01-05T10:16:41.068Z,6.20
2019-01-05T10:19:54.344Z,4.80
2019-01-05T10:26:39.594Z,6.65
2019-01-05T10:29:55.693Z,7.12
2019-01-05T10:33:15.626Z,5.33
2019-01-05T10:36:29.677Z,5.85
2019-01-05T10:39:43.976Z,9.63
2019-01-05T10:42:56.753Z,5.20
2019-01-05T10:46:16.682Z,7.70
2019-01-05T10:49:30.729Z,5.83
2019-01-05T10:52:45.289Z,9.95
2019-01-05T10:55:58.056Z,6.35
2019-01-05T10:59:15.689Z,6.53
2019-01-05T11:02:38.701Z,7.42
2019-01-05T11:05:55.306Z,6.72
2019-01-05T11:09:08.072Z,8.90
2019-01-05T11:12:20.330Z,7.75
2019-01-05T11:15:46.162Z,9.73
2019-01-05T11:19:12.237Z,10.35
2019-01-05T11:22:25.002Z,9.15
2019-01-05T11:25:57.233Z,9.93
2019-01-05T11:29:17.419Z,9.53
2019-01-05T11:32:44.778Z,10.72
2019-01-05T11:36:04.199Z,6.95
2019-01-05T11:39:28.232Z,9.28
2019-01-05T11:42:46.123Z,7.75
2019-01-05T11:45:58.891Z,10.40
2019-01-05T11:49:26.017Z,11.25
2019-01-05T11:52:39.024Z,7.95
2019-01-05T11:56:06.121Z,8.60
2019-01-05T11:59:32.203Z,8.35
2019-01-05T12:02:42.720Z,7.90
2019-01-05T12:06:02.608Z,7.72
2019-01-05T12:09:25.392Z,7.95
2019-01-05T12:12:39.402Z,8.40
2019-01-05T12:15:59.083Z,9.13
2019-01-05T12:19:12.877Z,6.78
2019-01-05T12:22:27.202Z,9.43
2019-01-05T12:25:44.305Z,10.82
2019-01-05T12:29:14.732Z,7.03
2019-01-05T12:32:34.665Z,10.10
2019-01-05T12:35:48.460Z,7.33
2019-01-05T12:39:01.739Z,8.33
2019-01-05T12:42:18.599Z,8.60
2019-01-05T12:45:31.885Z,8.88
2019-01-05T12:48:52.592Z,13.25
2019-01-05T12:52:09.710Z,8.70
2019-01-05T12:55:25.293Z,7.95
2019-01-05T12:58:38.315Z,8.03
2019-01-05T13:01:51.347Z,12.25
2019-01-05T13:05:20.233Z,7.35
2019-01-05T13:08:49.658Z,8.43
2019-01-05T13:12:08.604Z,8.33
2019-01-05T13:15:18.166Z,11.03
2019-01-05T13:18:37.932Z,9.98
2019-01-05T13:21:52.234Z,8.98
2019-01-05T13:25:10.894Z,9.60
2019-01-05T13:28:38.569Z,7.87
2019-01-05T13:32:08.633Z,8.30
2019-01-05T13:35:31.956Z,9.90
2019-01-05T13:38:48.809Z,12.23
2019-01-05T13:42:11.826Z,7.50
2019-01-05T13:45:32.006Z,7.67
2019-01-05T13:49:04.234Z,7.45
2019-01-05T13:52:29.808Z,10.00
2019-01-05T13:55:32.844Z,9.08
2019-01-05T13:58:35.628Z,11.45
2019-01-05T14:01:38.156Z,9.38
2019-01-05T14:04:40.680Z,9.13
2019-01-05T14:07:44.235Z,8.85
2019-01-05T14:10:47.018Z,9.58
2019-01-05T14:13:50.571Z,10.38
2019-01-05T14:16:53.099Z,11.30
2019-01-05T14:19:56.168Z,8.83
2019-01-05T14:22:58.923Z,10.30
2019-01-05T14:26:02.474Z,15.30
2019-01-05T14:29:05.276Z,10.03
2019-01-05T14:32:08.300Z,12.33
2019-01-05T14:35:12.117Z,9.03
2019-01-05T14:38:14.891Z,15.88
2019-01-05T14:41:18.192Z,9.95
2019-01-05T14:44:21.227Z,7.80
2019-01-05T14:47:24.021Z,9.98
2019-01-05T14:50:26.537Z,9.68
2019-01-05T14:53:29.321Z,9.33
2019-01-05T14:56:32.103Z,9.80
2019-01-05T14:59:35.150Z,11.68
2019-01-05T15:02:37.935Z,8.88
2019-01-05T15:05:40.716Z,13.95
2019-01-05T15:08:43.757Z,12.40
2019-01-05T15:11:46.537Z,9.25
2019-01-05T15:14:49.578Z,9.08
2019-01-05T15:17:52.684Z,8.65
2019-01-05T15:20:56.939Z,10.95
2019-01-05T15:24:01.005Z,9.75
2019-01-05T15:27:04.042Z,9.85
2019-01-05T15:30:07.597Z,11.25
2019-01-05T15:33:11.400Z,10.70
2019-01-05T15:36:14.451Z,10.58
2019-01-05T15:39:16.971Z,12.73
2019-01-05T15:42:20.272Z,9.28
2019-01-05T15:45:23.050Z,15.48
2019-01-05T15:48:27.121Z,7.70
2019-01-05T15:51:31.186Z,14.90
2019-01-05T15:54:34.736Z,9.10
2019-01-05T15:57:38.809Z,9.33
2019-01-05T16:00:41.835Z,10.63
2019-01-05T16:03:44.877Z,9.58
2019-01-05T16:06:47.700Z,12.20
2019-01-05T16:09:51.729Z,9.60
2019-01-05T16:12:54.256Z,8.98
2019-01-05T16:15:57.034Z,8.95
2019-01-05T16:18:59.840Z,9.45
2019-01-05T16:22:02.344Z,8.88
2019-01-05T16:25:04.876Z,10.95
2019-01-05T16:28:07.914Z,14.45
2019-01-05T16:31:13.275Z,11.57
2019-01-05T16:34:16.814Z,10.25
2019-01-05T16:37:20.361Z,10.18
2019-01-05T16:40:22.889Z,9.38
2019-01-05T16:43:25.675Z,12.85
2019-01-05T16:46:28.717Z,13.88
2019-01-05T16:49:34.330Z,10.28
2019-01-05T16:52:40.169Z,13.55
2019-01-05T16:55:42.697Z,13.72
2019-01-05T16:58:54.185Z,15.43
2019-01-05T17:02:04.912Z,15.85
2019-01-05T17:05:12.004Z,14.87
2019-01-05T17:08:17.392Z,13.30
2019-01-05T17:11:28.877Z,12.00
2019-01-05T17:14:32.869Z,16.25
2019-01-05T17:17:40.589Z,17.12
2019-01-05T17:20:54.891Z,14.65
2019-01-05T17:23:57.935Z,14.50
2019-01-05T17:27:03.803Z,13.75
2019-01-05T17:30:07.853Z,17.57
2019-01-05T17:33:11.146Z,16.95
2019-01-05T17:36:14.443Z,12.55
2019-01-05T17:39:16.970Z,16.93
2019-01-05T17:42:20.014Z,17.52
2019-01-05T17:45:23.079Z,14.33
2019-01-05T17:48:25.842Z,13.60
2019-01-05T17:51:29.544Z,14.25
2019-01-05T17:54:35.252Z,12.80
2019-01-05T17:57:39.087Z,11.80
2019-01-05T18:00:41.598Z,16.07
2019-01-05T18:03:44.361Z,16.07
2019-01-05T18:06:46.933Z,14.55
2019-01-05T18:09:49.929Z,16.87
2019-01-05T18:12:52.461Z,16.50
2019-01-05T18:15:54.992Z,11.90
2019-01-05T18:18:57.775Z,14.83
2019-01-05T18:22:00.831Z,14.55
2019-01-05T18:25:03.864Z,14.25
2019-01-05T18:28:06.646Z,12.18
2019-01-05T18:31:13.796Z,13.35
2019-01-05T18:34:16.311Z,13.05
2019-01-05T18:37:20.373Z,11.43
2019-01-05T18:40:22.953Z,13.72
2019-01-05T18:43:25.701Z,13.48
2019-01-05T18:46:30.764Z,10.20
2019-01-05T18:49:34.571Z,9.78
2019-01-05T18:52:37.628Z,11.57
2019-01-05T18:55:36.577Z,10.32
2019-01-05T18:58:39.086Z,11.65
2019-01-05T19:01:41.900Z,12.73
2019-01-05T19:04:45.439Z,10.05
2019-01-05T19:07:48.209Z,12.07
2019-01-05T19:10:51.241Z,11.08
2019-01-05T19:13:54.042Z,11.60
2019-01-05T19:16:56.891Z,16.85
2019-01-05T19:19:59.595Z,11.18
2019-01-05T19:23:03.405Z,11.03
2019-01-05T19:26:06.204Z,9.23
2019-01-05T19:29:09.022Z,12.33
2019-01-05T19:32:11.755Z,11.85
2019-01-05T19:35:15.825Z,12.73
2019-01-05T19:38:18.609Z,10.30
2019-01-05T19:41:22.156Z,11.08
2019-01-05T19:44:24.942Z,10.23
2019-01-05T19:47:27.978Z,8.23
2019-01-05T19:50:31.017Z,7.95
2019-01-05T19:53:34.827Z,9.33
2019-01-05T19:56:37.612Z,10.25
2019-01-05T19:59:40.397Z,9.80
2019-01-05T20:02:43.691Z,10.80
2019-01-05T20:05:46.729Z,9.93
2019-01-05T20:08:49.769Z,10.10
2019-01-05T20:11:52.555Z,10.03
2019-01-05T20:14:55.595Z,10.35
2019-01-05T20:17:59.918Z,11.18
2019-01-05T20:21:02.453Z,10.38
2019-01-05T20:24:06.250Z,9.48
2019-01-05T20:27:08.792Z,9.48
2019-01-05T20:30:11.818Z,7.97
2019-01-05T20:33:14.344Z,9.58
2019-01-05T20:36:17.128Z,9.13
2019-01-05T20:39:20.426Z,10.15
2019-01-05T20:42:19.869Z,10.95
2019-01-05T20:45:23.189Z,9.18
2019-01-05T20:48:28.306Z,7.75
2019-01-05T20:51:31.312Z,8.60
2019-01-05T20:54:34.092Z,9.50
2019-01-05T20:57:37.129Z,8.55
2019-01-05T21:00:40.946Z,9.30
2019-01-05T21:03:45.001Z,9.40
2019-01-05T21:06:48.298Z,8.83
2019-01-05T21:09:51.083Z,8.70
2019-01-05T21:12:53.608Z,9.93
2019-01-05T21:15:56.397Z,10.93
2019-01-05T21:18:58.921Z,11.22
2019-01-05T21:22:02.737Z,12.18
2019-01-05T21:25:07.317Z,9.65
2019-01-05T21:28:09.836Z,10.80
2019-01-05T21:31:13.130Z,13.10
2019-01-05T21:34:16.170Z,9.75
2019-01-05T21:37:18.698Z,10.55
2019-01-05T21:40:21.481Z,9.45
2019-01-05T21:43:24.270Z,11.20
2019-01-05T21:46:27.055Z,10.72
2019-01-05T21:49:29.835Z,11.70
2019-01-05T21:52:32.623Z,11.50
2019-01-05T21:55:35.914Z,10.48
2019-01-05T21:58:38.442Z,9.70
2019-01-05T22:01:40.973Z,13.95
2019-01-05T22:04:43.756Z,10.48
2019-01-05T22:07:47.566Z,10.75
2019-01-05T22:10:50.347Z,10.53
2019-01-05T22:13:53.128Z,9.08
2019-01-05T22:16:55.913Z,9.20
2019-01-05T22:19:58.954Z,10.68
2019-01-05T22:23:01.485Z,12.50
2019-01-05T22:26:04.526Z,10.13
2019-01-05T22:29:07.050Z,11.15
2019-01-05T22:32:10.858Z,10.25
2019-01-05T22:35:13.388Z,9.65
2019-01-05T22:38:15.658Z,10.93
2019-01-05T22:41:18.446Z,13.05
2019-01-05T22:44:22.781Z,9.55
2019-01-05T22:47:27.091Z,10.55
2019-01-05T22:50:30.121Z,10.68
2019-01-05T22:53:32.908Z,13.40
2019-01-05T22:56:35.442Z,12.75
2019-01-05T22:59:37.961Z,9.55
2019-01-05T23:02:40.745Z,12.05
2019-01-05T23:05:43.794Z,10.75
2019-01-05T23:08:47.852Z,11.15
2019-01-05T23:11:50.387Z,14.13
2019-01-05T23:14:53.176Z,11.18
2019-01-05T23:17:55.946Z,10.78
2019-01-05T23:20:54.889Z,10.82
2019-01-05T23:23:57.936Z,9.18
2019-01-05T23:27:01.737Z,11.10
2019-01-05T23:30:04.263Z,12.15
2019-01-05T23:33:06.795Z,11.48
2019-01-05T23:36:09.579Z,10.95
2019-01-05T23:39:14.154Z,10.43
2019-01-05T23:42:17.193Z,9.83
2019-01-05T23:45:16.138Z,11.15
2019-01-05T23:48:18.666Z,13.98
2019-01-05T23:51:21.193Z,12.88
2019-01-05T23:54:23.723Z,11.43
2019-01-05T23:57:26.513Z,13.58
